Time;durP1;ratioP1;P1;durP2;ratioP2;P2;SDS_P1;SDS_P2;PMS_P1;PMS_P2;Temp;Humidity;BMP_temperature;BMP_pressure;BME280_temperature;BME280_humidity;BME280_pressure;Samples;Min_cycle;Max_cycle;Signal;HPM_P1;HPM_P2
2023/05/28 00:00:46;;;;;;;14.00;6.75;;;;;;;;;;5049923;28;20029;-76
2023/05/28 00:03:12;;;;;;;20.00;7.13;;;;;;;;;;5020862;28;20108;-75
2023/05/28 00:05:38;;;;;;;15.02;7.10;;;;;;;;;;5026248;28;20029;-76
2023/05/28 00:08:05;;;;;;;17.65;7.30;;;;;;;;;;5044773;28;20037;-75
2023/05/28 00:10:31;;;;;;;14.13;8.32;;;;;;;;;;5018657;28;20056;-75
2023/05/28 00:12:57;;;;;;;13.20;6.82;;;;;;;;;;5049251;28;20021;-75
2023/05/28 00:15:23;;;;;;;13.95;7.07;;;;;;;;;;5039630;28;20032;-74
2023/05/28 00:17:52;;;;;;;14.32;6.47;;;;;;;;;;5041340;28;20480;-75
2023/05/28 00:20:18;;;;;;;14.73;7.55;;;;;;;;;;5029567;28;20039;-74
2023/05/28 00:22:44;;;;;;;14.27;7.30;;;;;;;;;;5036099;28;20022;-74
2023/05/28 00:25:11;;;;;;;16.52;7.07;;;;;;;;;;5047341;28;20549;-75
2023/05/28 00:27:37;;;;;;;13.82;7.18;;;;;;;;;;5040794;28;20052;-74
2023/05/28 00:30:03;;;;;;;9.65;6.10;;;;;;;;;;5039821;28;20079;-75
2023/05/28 00:32:29;;;;;;;12.48;6.20;;;;;;;;;;5030874;28;20025;-73
2023/05/28 00:34:55;;;;;;;15.00;7.43;;;;;;;;;;5036436;28;20036;-74
2023/05/28 00:37:22;;;;;;;16.13;8.32;;;;;;;;;;5044994;28;20045;-75
2023/05/28 00:39:48;;;;;;;15.10;6.50;;;;;;;;;;5043169;28;20124;-75
2023/05/28 00:42:14;;;;;;;13.55;6.78;;;;;;;;;;5037989;28;20519;-75
2023/05/28 00:44:41;;;;;;;14.60;7.03;;;;;;;;;;5048350;28;20026;-75
2023/05/28 00:47:07;;;;;;;15.77;6.93;;;;;;;;;;5018461;28;20029;-75
2023/05/28 00:49:33;;;;;;;15.73;7.47;;;;;;;;;;5025299;28;20035;-75
2023/05/28 00:51:59;;;;;;;15.35;7.78;;;;;;;;;;5043652;28;20467;-74
2023/05/28 00:54:25;;;;;;;11.98;7.10;;;;;;;;;;5036180;28;20491;-74
2023/05/28 00:56:53;;;;;;;13.93;7.03;;;;;;;;;;5048218;28;20115;-74
2023/05/28 00:59:21;;;;;;;14.93;6.93;;;;;;;;;;5037510;28;20029;-74
2023/05/28 01:01:47;;;;;;;14.50;6.90;;;;;;;;;;5041796;28;20037;-74
2023/05/28 01:04:13;;;;;;;16.15;7.00;;;;;;;;;;5027901;28;20021;-74
2023/05/28 01:06:40;;;;;;;13.35;6.32;;;;;;;;;;5035195;28;20112;-74
2023/05/28 01:09:06;;;;;;;16.90;7.53;;;;;;;;;;5046483;28;20036;-74
2023/05/28 01:11:33;;;;;;;15.63;6.75;;;;;;;;;;5022291;28;20025;-74
2023/05/28 01:13:59;;;;;;;11.90;7.07;;;;;;;;;;5052298;23;20057;-71
2023/05/28 01:16:28;;;;;;;15.55;6.38;;;;;;;;;;5036181;28;20496;-73
2023/05/28 01:18:55;;;;;;;16.48;7.40;;;;;;;;;;5029906;28;20117;-73
2023/05/28 01:21:22;;;;;;;13.23;7.13;;;;;;;;;;5038611;28;20104;-70
2023/05/28 01:23:48;;;;;;;14.93;7.05;;;;;;;;;;5041216;28;20034;-72
2023/05/28 01:26:15;;;;;;;11.85;7.18;;;;;;;;;;5031463;28;20036;-71
2023/05/28 01:28:45;;;;;;;12.02;6.60;;;;;;;;;;5030955;28;20029;-71
2023/05/28 01:31:11;;;;;;;17.30;7.45;;;;;;;;;;5013689;28;20120;-71
2023/05/28 01:33:38;;;;;;;15.77;7.65;;;;;;;;;;5031552;28;20036;-72
2023/05/28 01:36:07;;;;;;;13.82;7.03;;;;;;;;;;5031181;28;20417;-72
2023/05/28 01:38:34;;;;;;;17.48;7.32;;;;;;;;;;5030647;28;20604;-72
2023/05/28 01:41:00;;;;;;;13.18;6.85;;;;;;;;;;5031391;28;20407;-71
2023/05/28 01:43:27;;;;;;;14.60;6.53;;;;;;;;;;5013742;28;20026;-72
2023/05/28 01:45:54;;;;;;;11.27;6.65;;;;;;;;;;5031218;28;20025;-72
2023/05/28 01:48:20;;;;;;;11.25;6.22;;;;;;;;;;5030452;28;20494;-72
2023/05/28 01:50:46;;;;;;;10.93;6.43;;;;;;;;;;5031044;28;20479;-72
2023/05/28 01:53:12;;;;;;;11.88;6.47;;;;;;;;;;5031281;28;20108;-72
2023/05/28 01:55:38;;;;;;;12.70;6.35;;;;;;;;;;5030993;28;20025;-72
2023/05/28 01:58:05;;;;;;;13.77;6.72;;;;;;;;;;5030458;28;20395;-72
2023/05/28 02:00:33;;;;;;;14.30;7.00;;;;;;;;;;5031290;28;20041;-72
2023/05/28 02:02:59;;;;;;;14.93;6.80;;;;;;;;;;5014237;28;20394;-72
2023/05/28 02:05:25;;;;;;;11.02;6.78;;;;;;;;;;5031074;28;20029;-72
2023/05/28 02:07:52;;;;;;;13.05;6.50;;;;;;;;;;5030333;28;20080;-72
2023/05/28 02:10:18;;;;;;;14.63;7.38;;;;;;;;;;5031547;28;20037;-72
2023/05/28 02:12:44;;;;;;;12.52;7.38;;;;;;;;;;5031539;28;20030;-71
2023/05/28 02:15:11;;;;;;;11.70;6.88;;;;;;;;;;5031244;28;20083;-72
2023/05/28 02:17:37;;;;;;;13.73;6.53;;;;;;;;;;5030318;28;20021;-72
2023/05/28 02:20:03;;;;;;;13.35;7.07;;;;;;;;;;5030754;28;20029;-72
2023/05/28 02:22:29;;;;;;;15.43;7.30;;;;;;;;;;5030834;28;20092;-71
2023/05/28 02:24:55;;;;;;;11.63;7.05;;;;;;;;;;5030677;28;20026;-72
2023/05/28 02:27:21;;;;;;;12.32;6.68;;;;;;;;;;5012346;28;20029;-71
2023/05/28 02:29:47;;;;;;;13.60;6.57;;;;;;;;;;5013401;28;20048;-72
2023/05/28 02:32:13;;;;;;;12.98;6.72;;;;;;;;;;5030484;28;20037;-71
2023/05/28 02:34:39;;;;;;;10.63;6.57;;;;;;;;;;5030867;28;20029;-72
2023/05/28 02:37:06;;;;;;;11.80;6.78;;;;;;;;;;5012331;28;20032;-71
2023/05/28 02:39:32;;;;;;;14.77;7.25;;;;;;;;;;5012795;28;20029;-71
2023/05/28 02:41:58;;;;;;;14.48;6.35;;;;;;;;;;5030731;28;20052;-72
2023/05/28 02:44:24;;;;;;;14.63;6.38;;;;;;;;;;5030594;28;20017;-71
2023/05/28 02:46:50;;;;;;;12.77;6.93;;;;;;;;;;5030468;28;20039;-72
2023/05/28 02:49:16;;;;;;;16.73;7.00;;;;;;;;;;5029889;28;20395;-73
2023/05/28 02:51:42;;;;;;;13.43;6.75;;;;;;;;;;5030603;28;20041;-73
2023/05/28 02:54:08;;;;;;;16.75;6.95;;;;;;;;;;5030517;28;20025;-73
2023/05/28 02:56:34;;;;;;;14.05;6.13;;;;;;;;;;5030480;28;20405;-74
2023/05/28 02:59:00;;;;;;;13.45;6.65;;;;;;;;;;5029725;28;20396;-73
2023/05/28 03:01:26;;;;;;;13.50;6.47;;;;;;;;;;5012886;28;20025;-73
2023/05/28 03:03:52;;;;;;;14.90;6.57;;;;;;;;;;5012569;28;20017;-73
2023/05/28 03:06:18;;;;;;;11.57;6.78;;;;;;;;;;5030370;28;20383;-73
2023/05/28 03:08:45;;;;;;;14.00;7.00;;;;;;;;;;5029507;28;20087;-73
2023/05/28 03:11:11;;;;;;;11.15;6.20;;;;;;;;;;5030471;28;20035;-72
2023/05/28 03:13:36;;;;;;;12.05;6.35;;;;;;;;;;5031656;28;20104;-72
2023/05/28 03:16:02;;;;;;;9.57;5.63;;;;;;;;;;5033870;28;20793;-73
2023/05/28 03:18:28;;;;;;;12.05;6.28;;;;;;;;;;5033392;28;20021;-73
2023/05/28 03:20:55;;;;;;;14.25;6.45;;;;;;;;;;5033812;28;20029;-73
2023/05/28 03:23:21;;;;;;;16.45;6.20;;;;;;;;;;5031548;28;20029;-73
2023/05/28 03:25:47;;;;;;;15.73;6.28;;;;;;;;;;5032460;28;20025;-72
2023/05/28 03:28:13;;;;;;;11.48;5.78;;;;;;;;;;5015541;28;20121;-72
2023/05/28 03:30:39;;;;;;;15.07;6.28;;;;;;;;;;5030396;28;20064;-73
2023/05/28 03:33:05;;;;;;;12.65;6.25;;;;;;;;;;5015994;28;20087;-75
2023/05/28 03:35:31;;;;;;;11.43;5.85;;;;;;;;;;5033261;28;20026;-73
2023/05/28 03:37:57;;;;;;;10.85;5.90;;;;;;;;;;5032797;28;20468;-74
2023/05/28 03:40:23;;;;;;;10.05;5.38;;;;;;;;;;5033757;28;20018;-73
2023/05/28 03:42:49;;;;;;;9.38;5.43;;;;;;;;;;5031273;28;20609;-73
2023/05/28 03:45:15;;;;;;;13.05;6.03;;;;;;;;;;5019631;28;20025;-74
2023/05/28 03:47:41;;;;;;;11.50;4.82;;;;;;;;;;5032816;28;20423;-73
2023/05/28 03:50:07;;;;;;;10.27;4.97;;;;;;;;;;5033162;28;20496;-73
2023/05/28 03:52:33;;;;;;;9.98;5.35;;;;;;;;;;5033371;28;20026;-73
2023/05/28 03:54:59;;;;;;;8.90;5.18;;;;;;;;;;5033250;28;20136;-73
2023/05/28 03:57:25;;;;;;;11.65;6.05;;;;;;;;;;5032497;28;20057;-73
2023/05/28 03:59:52;;;;;;;10.38;5.57;;;;;;;;;;5032960;28;20581;-73
2023/05/28 04:02:18;;;;;;;12.52;5.18;;;;;;;;;;5033107;28;20037;-74
2023/05/28 04:04:45;;;;;;;11.60;5.28;;;;;;;;;;5032821;28;20734;-73
2023/05/28 04:07:11;;;;;;;7.68;4.70;;;;;;;;;;5032746;28;20029;-73
2023/05/28 04:09:37;;;;;;;15.55;5.85;;;;;;;;;;5032976;28;20100;-74
2023/05/28 04:12:03;;;;;;;9.68;5.18;;;;;;;;;;5027836;28;20125;-74
2023/05/28 04:14:29;;;;;;;7.45;4.95;;;;;;;;;;5028990;28;20033;-74
2023/05/28 04:16:57;;;;;;;10.25;5.15;;;;;;;;;;5032889;28;20108;-73
2023/05/28 04:19:23;;;;;;;9.77;4.78;;;;;;;;;;5032561;28;20559;-74
2023/05/28 04:21:50;;;;;;;9.68;5.03;;;;;;;;;;5033336;28;20522;-73
2023/05/28 04:24:16;;;;;;;8.27;4.95;;;;;;;;;;5032826;28;20121;-74
2023/05/28 04:26:42;;;;;;;7.03;4.43;;;;;;;;;;5032096;28;20466;-73
2023/05/28 04:29:08;;;;;;;13.25;5.25;;;;;;;;;;5032550;28;20026;-74
2023/05/28 04:31:34;;;;;;;8.75;4.60;;;;;;;;;;5032440;28;20057;-74
2023/05/28 04:34:00;;;;;;;7.47;4.57;;;;;;;;;;5032712;28;20049;-73
2023/05/28 04:36:29;;;;;;;8.40;4.45;;;;;;;;;;5032595;28;20468;-74
2023/05/28 04:38:56;;;;;;;8.13;5.22;;;;;;;;;;5031734;28;20014;-74
2023/05/28 04:41:23;;;;;;;5.32;4.13;;;;;;;;;;5032690;28;20045;-73
2023/05/28 04:43:49;;;;;;;7.53;4.22;;;;;;;;;;5021904;28;20045;-74
2023/05/28 04:46:16;;;;;;;7.07;4.13;;;;;;;;;;5026294;28;20034;-73
2023/05/28 04:48:42;;;;;;;8.57;4.78;;;;;;;;;;5031604;28;20064;-73
2023/05/28 04:51:08;;;;;;;9.32;4.72;;;;;;;;;;5032681;28;20028;-74
2023/05/28 04:53:34;;;;;;;8.10;3.83;;;;;;;;;;5028344;28;20028;-74
2023/05/28 04:56:00;;;;;;;10.38;4.70;;;;;;;;;;5031817;28;20432;-74
2023/05/28 04:58:26;;;;;;;9.70;5.03;;;;;;;;;;5013944;28;20045;-74
2023/05/28 05:00:53;;;;;;;7.57;3.78;;;23.40;37.20;;;;;;5014027;28;20476;-74
2023/05/28 05:03:18;;;;;;;5.40;4.30;;;23.50;37.10;;;;;;5014125;28;20133;-74
2023/05/28 05:05:44;;;;;;;5.53;3.83;;;24.20;35.40;;;;;;5031956;28;20120;-73
2023/05/28 05:08:13;;;;;;;7.15;4.03;;;24.10;35.30;;;;;;5031090;28;20128;-73
2023/05/28 05:10:39;;;;;;;8.93;4.65;;;24.20;35.10;;;;;;5031877;28;20091;-74
2023/05/28 05:13:05;;;;;;;5.95;4.30;;;;;;;;;;5032793;28;20025;-74
2023/05/28 05:15:32;;;;;;;7.90;4.38;;;24.00;35.00;;;;;;5032142;28;20415;-76
2023/05/28 05:17:58;;;;;;;6.90;4.32;;;;;;;;;;5031024;28;20022;-74
2023/05/28 05:20:24;;;;;;;6.45;4.32;;;24.00;35.40;;;;;;5032138;28;20036;-75
2023/05/28 05:22:50;;;;;;;6.88;4.30;;;24.70;34.30;;;;;;5031693;28;20026;-74
2023/05/28 05:25:15;;;;;;;7.65;4.43;;;25.10;33.50;;;;;;5027740;28;20021;-74
2023/05/28 05:27:41;;;;;;;7.90;4.38;;;25.70;32.90;;;;;;5012746;28;20492;-74
2023/05/28 05:30:08;;;;;;;10.75;5.25;;;;;;;;;;5029879;28;20087;-74
2023/05/28 05:32:34;;;;;;;8.60;4.82;;;;;;;;;;5013505;28;20030;-74
2023/05/28 05:35:00;;;;;;;8.73;4.43;;;;;;;;;;5029676;28;20442;-73
2023/05/28 05:37:26;;;;;;;9.07;4.80;;;;;;;;;;5026117;28;20060;-74
2023/05/28 05:39:51;;;;;;;7.97;3.90;;;24.30;34.80;;;;;;5025399;28;20538;-74
2023/05/28 05:42:17;;;;;;;8.35;4.07;;;24.40;34.70;;;;;;5029056;28;20105;-73
2023/05/28 05:44:43;;;;;;;7.50;4.32;;;25.00;33.10;;;;;;5030040;28;20033;-73
2023/05/28 05:47:08;;;;;;;7.78;3.97;;;25.60;32.20;;;;;;5030594;28;20479;-73
2023/05/28 05:49:34;;;;;;;7.70;4.05;;;;;;;;;;5013357;28;20057;-73
2023/05/28 05:52:00;;;;;;;7.03;3.72;;;;;;;;;;5031245;28;20036;-73
2023/05/28 05:54:26;;;;;;;9.43;3.67;;;;;;;;;;5031045;28;20025;-73
2023/05/28 05:56:52;;;;;;;18.42;4.28;;;25.00;32.90;;;;;;5031031;28;20040;-71
2023/05/28 05:59:18;;;;;;;5.70;3.38;;;25.00;32.90;;;;;;5030132;28;20029;-73
2023/05/28 06:01:44;;;;;;;9.57;4.07;;;25.20;32.00;;;;;;5031147;28;20036;-73
2023/05/28 06:04:10;;;;;;;7.53;4.03;;;25.50;31.50;;;;;;5030871;28;20087;-73
2023/05/28 06:06:37;;;;;;;9.68;4.13;;;25.80;30.90;;;;;;5030885;28;20037;-74
2023/05/28 06:09:03;;;;;;;7.80;3.65;;;26.50;30.60;;;;;;5030354;28;20608;-74
2023/05/28 06:11:28;;;;;;;5.15;3.72;;;27.30;30.00;;;;;;5013310;28;20025;-74
2023/05/28 06:13:54;;;;;;;6.22;3.40;;;28.60;27.90;;;;;;5028082;28;20044;-74
2023/05/28 06:16:20;;;;;;;7.53;3.55;;;28.10;28.30;;;;;;5030086;28;20056;-73
2023/05/28 06:18:45;;;;;;;7.35;3.97;;;28.70;27.20;;;;;;5028994;28;20480;-75
2023/05/28 06:21:11;;;;;;;5.90;3.75;;;28.50;28.00;;;;;;5031512;28;20021;-75
2023/05/28 06:23:37;;;;;;;8.85;4.18;;;29.70;27.20;;;;;;5032077;28;20060;-75
2023/05/28 06:26:03;;;;;;;11.40;4.43;;;30.00;26.90;;;;;;5031185;28;20109;-75
2023/05/28 06:28:29;;;;;;;7.70;3.92;;;;;;;;;;5012965;28;20033;-76
2023/05/28 06:30:56;;;;;;;8.93;3.75;;;;;;;;;;5031016;28;20026;-76
2023/05/28 06:33:22;;;;;;;9.50;4.00;;;26.70;30.30;;;;;;5013212;28;20025;-76
2023/05/28 06:35:47;;;;;;;9.43;3.67;;;28.10;28.60;;;;;;5013123;28;20682;-76
2023/05/28 06:38:13;;;;;;;8.65;4.30;;;27.30;28.30;;;;;;5030668;28;20407;-76
2023/05/28 06:40:41;;;;;;;7.35;3.58;;;28.90;27.80;;;;;;5030803;28;20096;-76
2023/05/28 06:43:06;;;;;;;6.70;3.83;;;30.40;26.10;;;;;;5031097;28;20017;-77
2023/05/28 06:45:32;;;;;;;8.98;3.72;;;30.20;25.30;;;;;;5031139;28;20025;-76
2023/05/28 06:47:59;;;;;;;6.75;3.78;;;29.00;27.20;;;;;;5013157;28;20034;-76
2023/05/28 06:50:25;;;;;;;10.07;4.05;;;;;;;;;;5035293;28;20181;-76
2023/05/28 06:52:51;;;;;;;8.27;4.03;;;;;;;;;;5016392;28;20574;-76
2023/05/28 06:55:17;;;;;;;5.65;3.42;;;31.10;25.50;;;;;;5034585;28;20025;-76
2023/05/28 06:57:44;;;;;;;10.25;4.20;;;31.50;24.80;;;;;;5033745;28;20500;-77
2023/05/28 07:00:16;;;;;;;8.50;3.40;;;31.70;24.40;;;;;;5034244;28;20497;-76
2023/05/28 07:02:44;;;;;;;11.07;3.97;;;31.60;24.30;;;;;;5034530;28;20450;-76
2023/05/28 07:05:09;;;;;;;6.40;3.70;;;32.20;23.70;;;;;;5034321;28;20064;-76
2023/05/28 07:07:36;;;;;;;6.30;3.38;;;32.70;24.20;;;;;;5015732;28;20072;-76
2023/05/28 07:10:03;;;;;;;5.82;3.10;;;33.30;23.20;;;;;;5034057;28;20442;-76
2023/05/28 07:12:29;;;;;;;6.47;3.60;;;33.60;23.20;;;;;;5034060;28;20025;-76
2023/05/28 07:14:55;;;;;;;9.55;3.60;;;34.20;22.00;;;;;;5055967;23;20040;-76
2023/05/28 07:17:21;;;;;;;10.02;3.40;;;34.30;21.90;;;;;;5045442;28;20017;-76
2023/05/28 07:19:47;;;;;;;9.95;4.18;;;;;;;;;;5041815;28;20014;-77
2023/05/28 07:22:13;;;;;;;6.93;3.47;;;;;;;;;;5047095;28;20033;-76
2023/05/28 07:24:39;;;;;;;8.75;3.95;;;27.90;28.10;;;;;;5037136;28;20029;-76
2023/05/28 07:27:05;;;;;;;6.55;3.85;;;28.50;27.50;;;;;;5048409;28;20103;-76
2023/05/28 07:29:31;;;;;;;6.80;3.70;;;27.90;28.10;;;;;;5040916;28;20025;-76
2023/05/28 07:31:56;;;;;;;6.10;3.42;;;28.40;28.20;;;;;;5041907;28;20479;-77
2023/05/28 07:34:22;;;;;;;8.13;3.60;;;29.80;27.10;;;;;;5048846;28;20025;-77
2023/05/28 07:36:48;;;;;;;7.20;4.00;;;;;;;;;;5019142;28;20037;-76
2023/05/28 07:39:13;;;;;;;7.00;3.42;;;28.00;28.60;;;;;;5028132;28;20018;-76
2023/05/28 07:41:39;;;;;;;7.35;3.83;;;28.40;28.20;;;;;;5042441;28;20029;-76
2023/05/28 07:44:06;;;;;;;7.30;3.95;;;29.40;26.40;;;;;;5040212;28;20014;-77
2023/05/28 07:46:32;;;;;;;6.78;4.07;;;28.90;27.10;;;;;;5049644;28;20060;-77
2023/05/28 07:48:57;;;;;;;4.50;3.38;;;29.60;26.40;;;;;;5037231;28;20048;-77
2023/05/28 07:51:26;;;;;;;6.10;3.58;;;30.20;26.30;;;;;;5046919;28;20035;-77
2023/05/28 07:53:52;;;;;;;4.65;3.13;;;31.70;25.40;;;;;;5044166;28;20079;-78
2023/05/28 07:56:17;;;;;;;7.55;3.75;;;31.20;24.70;;;;;;5038929;28;20025;-77
2023/05/28 07:58:46;;;;;;;6.20;3.20;;;30.40;25.10;;;;;;5049666;28;20025;-78
2023/05/28 08:01:12;;;;;;;6.63;3.70;;;31.10;24.80;;;;;;5036983;28;20021;-77
2023/05/28 08:03:37;;;;;;;8.10;3.70;;;31.70;24.50;;;;;;5045139;28;20499;-77
2023/05/28 08:06:04;;;;;;;7.95;3.65;;;32.30;24.20;;;;;;5049035;28;20179;-76
2023/05/28 08:08:30;;;;;;;7.00;3.63;;;32.90;23.40;;;;;;5038255;28;20036;-76
2023/05/28 08:10:55;;;;;;;6.35;3.42;;;33.00;23.00;;;;;;5051610;28;20025;-76
2023/05/28 08:13:21;;;;;;;6.15;3.80;;;33.50;21.80;;;;;;5044895;28;20094;-77
2023/05/28 08:15:47;;;;;;;8.25;3.47;;;32.50;22.30;;;;;;5054823;28;20032;-77
2023/05/28 08:18:13;;;;;;;6.78;3.47;;;32.50;23.30;;;;;;5045422;28;20029;-77
2023/05/28 08:20:39;;;;;;;5.10;3.25;;;33.10;22.30;;;;;;5057315;28;20024;-77
2023/05/28 08:23:05;;;;;;;5.03;2.60;;;32.90;22.30;;;;;;5042661;28;20026;-77
2023/05/28 08:25:31;;;;;;;5.40;3.42;;;;;;;;;;5048943;28;20103;-78
2023/05/28 08:27:57;;;;;;;7.88;3.05;;;33.20;22.40;;;;;;5062754;28;20395;-77
2023/05/28 08:30:22;;;;;;;4.53;3.03;;;33.10;21.80;;;;;;5051787;28;20104;-78
2023/05/28 08:32:48;;;;;;;7.15;3.08;;;33.80;21.80;;;;;;5057833;28;20020;-77
2023/05/28 08:35:14;;;;;;;7.28;3.40;;;33.80;21.40;;;;;;5055943;28;20021;-77
2023/05/28 08:37:40;;;;;;;7.38;2.90;;;33.40;21.60;;;;;;5048247;28;20029;-77
2023/05/28 08:40:08;;;;;;;6.63;2.85;;;32.40;22.30;;;;;;5046688;28;20087;-78
2023/05/28 08:42:35;;;;;;;7.70;3.15;;;32.00;22.70;;;;;;5051825;28;20033;-77
2023/05/28 08:45:01;;;;;;;7.90;3.67;;;;;;;;;;5051440;28;20036;-77
2023/05/28 08:47:28;;;;;;;5.20;3.17;;;;;;;;;;5052559;28;20032;-77
2023/05/28 08:49:54;;;;;;;6.72;2.97;;;28.70;26.80;;;;;;5041366;28;20014;-77
2023/05/28 08:52:20;;;;;;;5.63;2.90;;;29.90;25.20;;;;;;5051531;28;20499;-78
2023/05/28 08:54:47;;;;;;;6.90;3.08;;;;;;;;;;5038595;28;20033;-75
2023/05/28 08:57:14;;;;;;;5.85;3.13;;;28.90;25.40;;;;;;5027824;28;20051;-76
2023/05/28 08:59:40;;;;;;;6.88;3.20;;;29.40;25.70;;;;;;5041369;28;20021;-77
2023/05/28 09:02:07;;;;;;;8.05;3.10;;;29.40;25.40;;;;;;5039883;28;20032;-77
2023/05/28 09:04:33;;;;;;;11.55;3.22;;;28.70;26.00;;;;;;5048956;28;20023;-77
2023/05/28 09:06:58;;;;;;;10.45;3.50;;;29.20;25.70;;;;;;5036041;28;20104;-76
2023/05/28 09:09:24;;;;;;;7.22;3.38;;;29.20;26.50;;;;;;5044730;28;20040;-77
2023/05/28 09:11:50;;;;;;;7.38;3.30;;;30.20;26.30;;;;;;5042391;28;20610;-77
2023/05/28 09:14:19;;;;;;;9.75;3.80;;;31.00;23.80;;;;;;5037949;28;20471;-77
2023/05/28 09:16:45;;;;;;;6.88;3.40;;;31.20;22.90;;;;;;5048549;28;20108;-77
2023/05/28 09:19:14;;;;;;;4.72;2.83;;;;;;;;;;5035239;28;20562;-76
2023/05/28 09:21:52;;;;;;;5.55;2.63;;;;;;;;;;5040952;28;20087;-77
2023/05/28 09:24:18;;;;;;;5.45;3.33;;;28.90;25.30;;;;;;5044569;28;20021;-76
2023/05/28 09:26:43;;;;;;;3.92;3.10;;;30.00;25.30;;;;;;5033469;28;20029;-76
2023/05/28 09:29:13;;;;;;;6.72;3.38;;;30.90;24.70;;;;;;5045703;28;20116;-76
2023/05/28 09:31:39;;;;;;;6.32;3.03;;;;;;;;;;5023191;28;20032;-76
2023/05/28 09:34:05;;;;;;;9.27;4.60;;;;;;;;;;5039018;28;20036;-76
2023/05/28 09:36:31;;;;;;;6.20;3.20;;;;;;;;;;5048027;28;20028;-76
2023/05/28 09:38:57;;;;;;;6.00;3.25;;;;;;;;;;5048094;28;20017;-76
2023/05/28 09:41:24;;;;;;;7.32;2.97;;;;;;;;;;5039912;28;20029;-76
2023/05/28 09:43:57;;;;;;;7.68;3.63;;;;;;;;;;5041161;28;20067;-76
2023/05/28 09:46:35;;;;;;;5.32;3.25;;;28.70;26.70;;;;;;5046582;28;20441;-76
2023/05/28 09:49:04;;;;;;;7.22;2.85;;;28.90;24.40;;;;;;5030894;28;20025;-76
2023/05/28 09:51:33;;;;;;;6.50;2.97;;;27.90;25.60;;;;;;5039640;28;20035;-77
2023/05/28 09:54:04;;;;;;;4.90;2.75;;;28.40;25.10;;;;;;5039092;28;20033;-77
2023/05/28 09:56:31;;;;;;;7.45;3.20;;;;;;;;;;5048653;28;20074;-76
2023/05/28 09:58:58;;;;;;;5.57;2.65;;;27.80;26.50;;;;;;5018046;28;20020;-76
2023/05/28 10:01:32;;;;;;;5.32;2.80;;;;;;;;;;5044364;28;20022;-75
2023/05/28 10:04:11;;;;;;;4.47;2.40;;;;;;;;;;5043222;28;20025;-75
2023/05/28 10:06:39;;;;;;;6.47;3.17;;;;;;;;;;5034538;28;20109;-77
2023/05/28 10:09:06;;;;;;;7.68;2.75;;;;;;;;;;5050590;28;20040;-77
2023/05/28 10:11:36;;;;;;;3.90;2.65;;;;;;;;;;5051375;28;20029;-77
2023/05/28 10:14:02;;;;;;;6.18;3.00;;;;;;;;;;5039188;28;20037;-76
2023/05/28 10:16:29;;;;;;;6.30;2.60;;;;;;;;;;5051469;28;20629;-77
2023/05/28 10:18:56;;;;;;;4.07;2.60;;;;;;;;;;5034347;28;20479;-76
2023/05/28 10:21:23;;;;;;;3.83;2.72;;;;;;;;;;5043969;28;20029;-76
2023/05/28 10:23:49;;;;;;;7.85;2.78;;;;;;;;;;5023675;28;20600;-76
2023/05/28 10:26:16;;;;;;;5.68;2.80;;;;;;;;;;5036606;28;20037;-76
2023/05/28 10:28:43;;;;;;;9.52;4.00;;;;;;;;;;5049111;28;20027;-77
2023/05/28 10:31:10;;;;;;;9.02;5.32;;;;;;;;;;5018078;28;20029;-76
2023/05/28 10:33:42;;;;;;;7.32;2.58;;;;;;;;;;5037473;28;20102;-76
2023/05/28 10:36:12;;;;;;;6.68;2.90;;;;;;;;;;5036720;28;20017;-75
2023/05/28 10:38:45;;;;;;;8.23;3.00;;;;;;;;;;5044359;28;20028;-75
2023/05/28 10:41:11;;;;;;;6.60;2.72;;;;;;;;;;5038907;28;20539;-75
2023/05/28 10:43:45;;;;;;;7.10;2.72;;;;;;;;;;5038938;28;20025;-77
2023/05/28 10:46:12;;;;;;;8.13;2.90;;;;;;;;;;5034589;28;20071;-76
2023/05/28 10:48:39;;;;;;;7.18;2.75;;;;;;;;;;5047017;28;20402;-75
2023/05/28 10:51:05;;;;;;;7.97;2.88;;;;;;;;;;5046088;28;20423;-75
2023/05/28 10:53:31;;;;;;;4.97;2.63;;;;;;;;;;5039232;28;20083;-76
2023/05/28 10:55:58;;;;;;;6.32;3.08;;;;;;;;;;5039073;28;20424;-76
2023/05/28 10:58:25;;;;;;;7.70;3.30;;;;;;;;;;5027574;28;20025;-76
2023/05/28 11:00:51;;;;;;;4.93;2.50;;;;;;;;;;5051178;28;20487;-76
2023/05/28 11:03:18;;;;;;;5.72;2.72;;;;;;;;;;5044620;28;20025;-76
2023/05/28 11:05:45;;;;;;;4.70;2.63;;;;;;;;;;5041281;28;20027;-76
2023/05/28 11:08:11;;;;;;;4.72;2.88;;;;;;;;;;5039248;28;20030;-76
2023/05/28 11:10:37;;;;;;;7.03;3.45;;;;;;;;;;5035299;28;20032;-76
2023/05/28 11:13:03;;;;;;;6.07;3.08;;;;;;;;;;5049240;28;20049;-77
2023/05/28 11:15:29;;;;;;;6.78;3.10;;;;;;;;;;5043717;28;20091;-77
2023/05/28 11:17:55;;;;;;;5.78;2.85;;;;;;;;;;5042679;28;20031;-78
2023/05/28 11:20:21;;;;;;;3.65;2.67;;;;;;;;;;5034363;28;20035;-76
2023/05/28 11:22:48;;;;;;;5.45;2.30;;;;;;;;;;5034589;28;20072;-76
2023/05/28 11:25:14;;;;;;;5.57;2.70;;;;;;;;;;5044940;28;20070;-77
2023/05/28 11:27:41;;;;;;;6.38;2.72;;;;;;;;;;5039952;28;20021;-77
2023/05/28 11:30:14;;;;;;;5.53;2.60;;;;;;;;;;5037573;28;20029;-77
2023/05/28 11:32:40;;;;;;;5.30;2.58;;;;;;;;;;5047026;28;20040;-77
2023/05/28 11:35:06;;;;;;;6.65;2.92;;;;;;;;;;5037223;28;20021;-77
2023/05/28 11:37:33;;;;;;;4.75;2.97;;;;;;;;;;5044663;28;20041;-77
2023/05/28 11:40:00;;;;;;;5.18;2.30;;;;;;;;;;5045230;28;20028;-77
2023/05/28 11:42:28;;;;;;;5.55;2.65;;;;;;;;;;5047452;28;20369;-77
2023/05/28 11:44:54;;;;;;;9.13;3.25;;;;;;;;;;5047488;28;20017;-77
2023/05/28 11:47:20;;;;;;;4.70;2.60;;;;;;;;;;5040070;28;20033;-77
2023/05/28 11:49:47;;;;;;;5.78;2.78;;;;;;;;;;5043347;28;20116;-77
2023/05/28 11:52:16;;;;;;;8.88;4.20;;;;;;;;;;5040799;28;20033;-71
2023/05/28 11:54:44;;;;;;;5.93;2.95;;;;;;;;;;5051557;28;20029;-72
2023/05/28 11:57:10;;;;;;;8.10;4.85;;;;;;;;;;5037705;28;20131;-72
2023/05/28 11:59:36;;;;;;;136.57;82.75;;;;;;;;;;5043985;28;20026;-70
2023/05/28 12:02:12;;;;;;;12.10;8.30;;;;;;;;;;5045421;28;20487;-69
2023/05/28 12:04:38;;;;;;;7.53;3.38;;;;;;;;;;5038564;28;20563;-71
2023/05/28 12:07:04;;;;;;;6.25;3.22;;;;;;;;;;5052216;28;20773;-71
2023/05/28 12:09:30;;;;;;;5.95;2.58;;;;;;;;;;5045151;28;20033;-71
2023/05/28 12:12:03;;;;;;;5.63;2.80;;;;;;;;;;5044544;28;20025;-71
2023/05/28 12:14:31;;;;;;;48.38;35.60;;;;;;;;;;5040128;28;20036;-71
2023/05/28 12:17:04;;;;;;;4.00;2.58;;;;;;;;;;5036763;28;20035;-71
2023/05/28 12:19:32;;;;;;;4.05;2.80;;;;;;;;;;5029475;28;20022;-71
2023/05/28 12:21:58;;;;;;;42.78;29.27;;;;;;;;;;5029248;28;20518;-70
2023/05/28 12:24:26;;;;;;;14.63;3.58;;;;;;;;;;5039400;28;20025;-70
2023/05/28 12:26:52;;;;;;;6.78;3.35;;;;;;;;;;5050726;28;20052;-70
2023/05/28 12:29:18;;;;;;;11.10;5.43;;;;;;;;;;5039372;28;20476;-70
2023/05/28 12:31:44;;;;;;;237.10;163.98;;;;;;;;;;5043406;28;20022;-71
2023/05/28 12:34:10;;;;;;;9.80;5.65;;;;;;;;;;5046191;28;20167;-69
2023/05/28 12:36:36;;;;;;;5.47;2.78;;;;;;;;;;5036227;28;20032;-69
2023/05/28 12:39:04;;;;;;;6.18;3.28;;;;;;;;;;5047753;28;20014;-69
2023/05/28 12:41:30;;;;;;;5.55;3.08;;;;;;;;;;5039824;28;20040;-69
2023/05/28 12:43:56;;;;;;;21.27;11.88;;;;;;;;;;5040206;28;20105;-70
2023/05/28 12:46:22;;;;;;;186.00;153.40;;;;;;;;;;5046120;28;20088;-68
2023/05/28 12:48:48;;;;;;;74.88;50.17;;;;;;;;;;5034389;28;20033;-68
2023/05/28 12:51:15;;;;;;;5.40;3.28;;;;;;;;;;5046270;28;20055;-75
2023/05/28 12:53:41;;;;;;;5.05;3.05;;;;;;;;;;5024151;28;20021;-75
2023/05/28 12:56:07;;;;;;;4.57;3.03;;;;;;;;;;5038501;28;20443;-75
2023/05/28 12:58:33;;;;;;;4.93;3.00;;;;;;;;;;5047950;28;20029;-76
2023/05/28 13:00:59;;;;;;;4.20;2.97;;;;;;;;;;5032652;28;20029;-75
2023/05/28 13:03:25;;;;;;;6.47;2.70;;;;;;;;;;5039423;28;20087;-75
2023/05/28 13:05:52;;;;;;;5.85;2.95;;;;;;;;;;5039785;28;20573;-75
2023/05/28 13:08:18;;;;;;;4.40;2.60;;;;;;;;;;5026232;28;20029;-76
2023/05/28 13:10:44;;;;;;;4.75;2.58;;;;;;;;;;5033525;28;20067;-75
2023/05/28 13:13:10;;;;;;;6.60;3.00;;;;;;;;;;5044867;28;20399;-75
2023/05/28 13:15:37;;;;;;;5.45;2.88;;;;;;;;;;5051935;23;20045;-74
2023/05/28 13:18:03;;;;;;;5.28;2.85;;;;;;;;;;5048127;28;20487;-74
2023/05/28 13:20:29;;;;;;;5.97;2.88;;;;;;;;;;5035848;28;20039;-73
2023/05/28 13:22:55;;;;;;;4.05;2.47;;;;;;;;;;5047050;28;20021;-72
2023/05/28 13:25:21;;;;;;;7.18;2.78;;;;;;;;;;5038373;28;20380;-73
2023/05/28 13:27:47;;;;;;;4.45;2.65;;;;;;;;;;5040101;28;20057;-74
2023/05/28 13:30:14;;;;;;;6.90;2.63;;;;;;;;;;5045492;28;20104;-75
2023/05/28 13:32:40;;;;;;;3.80;2.40;;;;;;;;;;5034658;28;20032;-74
2023/05/28 13:35:06;;;;;;;5.68;3.08;;;;;;;;;;5046815;28;20021;-73
2023/05/28 13:37:33;;;;;;;6.45;2.95;;;;;;;;;;5040296;28;20082;-74
2023/05/28 13:39:59;;;;;;;6.60;2.85;;;;;;;;;;5040951;28;20109;-73
2023/05/28 13:42:25;;;;;;;4.53;2.47;;;;;;;;;;5046444;28;20049;-73
2023/05/28 13:44:51;;;;;;;3.72;2.85;;;;;;;;;;5030459;28;20025;-74
2023/05/28 13:47:17;;;;;;;6.15;2.45;;;;;;;;;;5035565;28;20091;-74
2023/05/28 13:49:44;;;;;;;6.68;3.30;;;;;;;;;;5039978;28;20021;-73
2023/05/28 13:52:10;;;;;;;4.95;2.80;;;;;;;;;;5043383;28;20392;-73
2023/05/28 13:54:36;;;;;;;7.72;3.00;;;;;;;;;;5046849;28;20036;-73
2023/05/28 13:57:02;;;;;;;5.03;2.72;;;;;;;;;;5033064;28;20060;-74
2023/05/28 13:59:28;;;;;;;8.75;2.95;;;;;;;;;;5042219;28;20025;-74